METAR v bližini

 

LJLJ - Ljubljana/Brnik, Slovenia
Oddaljenost od postaje: W 41km
Podatki zajeti: 22/06/2024 20:30
Pretežno oblačno
Pretežno oblačno
 Veter iz smeri SE
Veter: SE 11 km/h
Temperatura: 22°C
Rosišče: 17°C
Vlažnost: 73%
Tlak: 1010 hPa
Oblačnost: Pretežno oblačno
Vidljivost: 10 km
Podrobnosti o oblakih: Delno oblačno 1372 m
Pretežno oblačno 1829 m
2024/06/22 18:30 LJLJ 221830Z 13006KT 9999 SCT045 BKN060 22/17 Q1010 NOSIG
LJMB - Maribor, Slovenia
Oddaljenost od postaje: NE 63km
Podatki zajeti: 22/06/2024 20:30
Pretežno oblačno
Pretežno oblačno
 Veter iz smeri E
Veter: E 6 km/h
Temperatura: 24°C
Rosišče: 15°C
Vlažnost: 57%
Tlak: 1011 hPa
Oblačnost: Pretežno oblačno
Vidljivost: 10 km
Podrobnosti o oblakih: Rahlo oblačno 1372 m
Pretežno oblačno 2164 m
2024/06/22 18:30 LJMB 221830Z AUTO 09003KT 9999 FEW045/// BKN071/// 24/15 Q1011
 
LJPZ - Portoroz, Slovenia
Oddaljenost od postaje: SW 130km
Podatki zajeti: 22/06/2024 20:30
Jasno
Jasno
 Veter iz smeri spremenljiv
Veter: spremenljiv 4 km/h
Temperatura: 26°C
Rosišče: 18°C
Vlažnost: 61%
Tlak: 1008 hPa
Oblačnost: Jasno
Vidljivost: 10 km
2024/06/22 18:30 LJPZ 221830Z AUTO VRB02KT 9999 NCD 26/18 Q1008
LJCE - Cerklje, Slovenia
Oddaljenost od postaje: ESE 49km
Podatki zajeti: 22/06/2024 20:30
Delno oblačno
Delno oblačno
 Veter iz smeri ENE
Veter: ENE 9 km/h
Temperatura: 24°C
Rosišče: 16°C
Vlažnost: 61%
Tlak: 1010 hPa
Oblačnost: Delno oblačno
Vidljivost: 10 km
2024/06/22 18:30 LJCE 221830Z AUTO 06005KT 9999 NSC 24/16 Q1010
 
LDZA - Zagreb/Pleso, Croatia
Oddaljenost od postaje: ESE 96km
Podatki zajeti: 22/06/2024 20:30
Jasno
Jasno
 Veter iz smeri ENE
Veter: ENE 11 km/h
Temperatura: 25°C
Rosišče: 16°C
Vlažnost: 57%
Tlak: 1009 hPa
Stanje: Jasno
Vidljivost: večja od 10 km
2024/06/22 18:30 LDZA 221830Z 07006KT 030V110 CAVOK 25/16 Q1009 NOSIG
LDRI - Rijeka/Omisalj, Croatia
Oddaljenost od postaje: SSW 109km
Podatki zajeti: 22/06/2024 20:30
Jasno
Jasno
 Veter iz smeri S
Veter: S 6 km/h
Temperatura: 26°C
Rosišče: 16°C
Vlažnost: 54%
Tlak: 1008 hPa
Stanje: Jasno
Vidljivost: večja od 10 km
2024/06/22 18:30 LDRI 221830Z 19003KT CAVOK 26/16 Q1008
 
LDPL - Pula, Croatia
Oddaljenost od postaje: SSW 164km
Podatki zajeti: 22/06/2024 20:30
Jasno
Jasno
 Veter iz smeri spremenljiv
Veter: spremenljiv 2 km/h
Temperatura: 23°C
Rosišče: 18°C
Vlažnost: 74%
Tlak: 1008 hPa
Stanje: Jasno
Vidljivost: večja od 10 km
2024/06/22 18:30 LDPL 221830Z VRB01KT CAVOK 23/18 Q1008 NOSIG
LOWK - Klagenfurt(Civ/M, Austria
Oddaljenost od postaje: NW 76km
Podatki zajeti: 22/06/2024 20:20
Rahlo oblačno
Rahlo oblačno
 Veter iz smeri E
Veter: E 19 km/h
Temperatura: 23°C
Rosišče: 15°C
Vlažnost: 61%
Tlak: 1010 hPa
Oblačnost: Rahlo oblačno
Vidljivost: 10 km
Podrobnosti o oblakih: Rahlo oblačno 1524 m
Rahlo oblačno 1524 m
2024/06/22 18:20 LOWK 221820Z AUTO 09010KT 9999 FEW050 FEW050CB 23/15 Q1010 NOSIG
 
LOWG - Graz (mil/Civ), Austria
Oddaljenost od postaje: NNE 100km
Podatki zajeti: 22/06/2024 20:20
Pretežno oblačno
Pretežno oblačno
 Veter iz smeri spremenljiv
Veter: spremenljiv 2 km/h
Temperatura: 22°C
Rosišče: 19°C
Vlažnost: 83%
Tlak: 1011 hPa
Oblačnost: Pretežno oblačno
Vidljivost: 10 km
Podrobnosti o oblakih: Rahlo oblačno 1219 m
Delno oblačno 1280 m
Pretežno oblačno 1463 m
2024/06/22 18:20 LOWG 221820Z AUTO VRB01KT 9999 FEW040 SCT042 BKN048 22/19 Q1011 NOSIG
LOAN - Wr.neustadt East, Austria
Oddaljenost od postaje: NNE 212km
Podatki zajeti: 22/06/2024 20:00
Delno oblačno
Delno oblačno
 Veter iz smeri NW
Veter: NW 11 km/h
Oblačnost: Delno oblačno
Vidljivost: 10 km
Podrobnosti o oblakih: Delno oblačno 1829 m
2024/06/22 18:00 LOAN 221800Z 32006KT 9999 SCT060 ///// Q////
 
LIPQ - Ronchi Legionari, Italy
Oddaljenost od postaje: SW 35km
Podatki zajeti: 22/06/2024 20:20
Jasno
Jasno
 Veter iz smeri SW
Veter: SW 6 km/h
Temperatura: 26°C
Rosišče: 18°C
Vlažnost: 61%
Tlak: 1008 hPa
Oblačnost: Jasno
Vidljivost: 10 km
2024/06/22 18:20 LIPQ 221820Z AUTO 22003KT 190V290 9999 NCD 26/18 Q1008
LIVT - Trieste, Italy
Oddaljenost od postaje: WSW 109km
Podatki zajeti: 22/06/2024 19:55

 Veter iz smeri spremenljiv
Veter: spremenljiv 2 km/h
Temperatura: 27°C
Toplotni indeks: 28°C
Rosišče: 18°C
Vlažnost: 58%
Tlak: 1007 hPa
2024/06/22 17:55 LIVT 221755Z AUTO VRB01KT //// 27/18 Q1007
 
LIVO - Tarvisio, Italy
Oddaljenost od postaje: NNW 49km
Podatki zajeti: 21/06/2024 11:55
Ni posodobljen
Jasno
Jasno
 Veter iz smeri SSE
Veter: SSE 6 km/h
Temperatura: 26°C
Rosišče: 19°C
Vlažnost: 65%
Tlak: 1018 hPa
Stanje: Jasno
Vidljivost: večja od 10 km
2024/06/21 09:55 LIVO 210955Z 15003KT CAVOK 26/19 Q1018
LIPZ - Venezia/Tessera, Italy
Oddaljenost od postaje: WSW 217km
Podatki zajeti: 22/06/2024 20:20
Jasno
Jasno
 Veter iz smeri SE
Veter: SE 24 km/h
Temperatura: 26°C
Rosišče: 22°C
Vlažnost: 79%
Tlak: 1007 hPa
Oblačnost: Jasno
Vidljivost: 10 km
2024/06/22 18:20 LIPZ 221820Z AUTO 13013KT 9999 NCD 26/22 Q1007
 
LHSM - Balaton, Hungary
Oddaljenost od postaje: ENE 177km
Podatki zajeti: 22/06/2024 20:15
Jasno
Jasno
 Veter iz smeri NNE
Veter: NNE 11 km/h
Temperatura: 24°C
Rosišče: 17°C
Vlažnost: 65%
Tlak: 1010 hPa
Stanje: Jasno
Vidljivost: večja od 10 km
2024/06/22 18:15 LHSM 221815Z AUTO 02006KT 340V050 CAVOK 24/17 Q1010